createdAt,value
2018-02-14T00:03:34.000Z,1006.012
2018-02-14T00:13:34.000Z,1006.072
2018-02-14T00:23:34.000Z,1006.056
2018-02-14T00:33:34.000Z,1006.055
2018-02-14T00:43:34.000Z,1006.12
2018-02-14T00:53:34.000Z,1006.23
2018-02-14T01:03:34.000Z,1006.302
2018-02-14T01:13:34.000Z,1006.305
2018-02-14T01:23:34.000Z,1006.356
2018-02-14T01:33:34.000Z,1006.312
2018-02-14T01:43:34.000Z,1006.386
2018-02-14T01:53:34.000Z,1006.414
2018-02-14T02:03:34.000Z,1006.398
2018-02-14T02:13:34.000Z,1006.437
2018-02-14T02:23:34.000Z,1006.468
2018-02-14T02:33:34.000Z,1006.476
2018-02-14T02:43:34.000Z,1006.54
2018-02-14T02:53:34.000Z,1006.639
2018-02-14T03:03:34.000Z,1006.73
2018-02-14T03:13:34.000Z,1006.786
2018-02-14T03:23:34.000Z,1006.837
2018-02-14T03:33:34.000Z,1006.805
2018-02-14T03:43:34.000Z,1007.006
2018-02-14T03:53:34.000Z,1007.114
2018-02-14T04:03:34.000Z,1007.155
2018-02-14T04:13:34.000Z,1007.186
2018-02-14T04:23:34.000Z,1007.392
2018-02-14T04:33:34.000Z,1007.473
2018-02-14T04:43:34.000Z,1007.627
2018-02-14T04:53:34.000Z,1007.763
2018-02-14T05:03:34.000Z,1007.804
2018-02-14T05:13:34.000Z,1007.843
2018-02-14T05:23:34.000Z,1007.908
2018-02-14T05:33:34.000Z,1007.881
2018-02-14T05:43:34.000Z,1007.927
2018-02-14T05:53:34.000Z,1008.038
2018-02-14T06:03:34.000Z,1008.039
2018-02-14T06:13:34.000Z,1008.007
2018-02-14T06:23:35.000Z,1008.135
2018-02-14T06:33:34.000Z,1008.114
2018-02-14T06:43:34.000Z,1008.175
2018-02-14T06:53:34.000Z,1008.168
2018-02-14T07:03:35.000Z,1008.248
2018-02-14T07:13:35.000Z,1008.283
2018-02-14T07:23:35.000Z,1008.44
2018-02-14T07:33:35.000Z,1008.515
2018-02-14T07:43:35.000Z,1008.705
2018-02-14T07:53:35.000Z,1008.858
2018-02-14T08:03:35.000Z,1009.004
2018-02-14T08:13:35.000Z,1008.954
2018-02-14T08:23:35.000Z,1009.071
2018-02-14T08:33:35.000Z,1009.092
2018-02-14T08:43:35.000Z,1009.155
2018-02-14T08:53:35.000Z,1009.195
2018-02-14T09:03:35.000Z,1009.373
2018-02-14T09:13:35.000Z,1009.255
2018-02-14T09:23:35.000Z,1009.3
2018-02-14T09:33:35.000Z,1009.32
2018-02-14T09:43:35.000Z,1009.403
2018-02-14T09:53:35.000Z,1009.344
2018-02-14T10:03:35.000Z,1009.477
2018-02-14T10:13:35.000Z,1009.398
2018-02-14T10:23:35.000Z,1009.436
2018-02-14T10:33:35.000Z,1009.427
2018-02-14T10:43:35.000Z,1009.485
2018-02-14T10:53:35.000Z,1009.517
2018-02-14T11:03:35.000Z,1009.442
2018-02-14T11:13:35.000Z,1009.423
2018-02-14T11:23:35.000Z,1009.361
2018-02-14T11:33:35.000Z,1009.329
2018-02-14T11:43:35.000Z,1009.26
2018-02-14T11:53:35.000Z,1009.212
2018-02-14T12:03:38.000Z,1009.231
2018-02-14T12:13:35.000Z,1009.289
2018-02-14T12:23:35.000Z,1009.238
2018-02-14T12:33:35.000Z,1009.18
2018-02-14T12:43:35.000Z,1009.096
2018-02-14T12:53:35.000Z,1008.997
2018-02-14T13:03:35.000Z,1008.844
2018-02-14T13:13:35.000Z,1008.867
2018-02-14T13:23:35.000Z,1008.807
2018-02-14T13:33:35.000Z,1008.749
2018-02-14T13:43:35.000Z,1008.621
2018-02-14T13:53:35.000Z,1008.596
2018-02-14T14:03:35.000Z,1008.627
2018-02-14T14:13:35.000Z,1008.65
2018-02-14T14:23:35.000Z,1008.645
2018-02-14T14:33:35.000Z,1008.685
2018-02-14T14:43:35.000Z,1008.684
2018-02-14T14:53:35.000Z,1008.654
2018-02-14T15:03:36.000Z,1008.547
2018-02-14T15:13:36.000Z,1008.657
2018-02-14T15:23:36.000Z,1008.659
2018-02-14T15:33:36.000Z,1008.729
2018-02-14T15:43:37.000Z,1008.83
2018-02-14T15:53:36.000Z,1008.985
2018-02-14T16:03:36.000Z,1009.07
2018-02-14T16:13:36.000Z,1009.007
2018-02-14T16:23:36.000Z,1009.006
2018-02-14T16:33:36.000Z,1008.978
2018-02-14T16:43:36.000Z,1009.068
2018-02-14T16:53:36.000Z,1009.13
2018-02-14T17:03:36.000Z,1009.023
2018-02-14T17:13:36.000Z,1009.039
2018-02-14T17:23:36.000Z,1009.08
2018-02-14T17:33:36.000Z,1009.19
2018-02-14T17:43:36.000Z,1009.284
2018-02-14T17:53:36.000Z,1009.346
2018-02-14T18:03:36.000Z,1009.334
2018-02-14T18:13:36.000Z,1009.194
2018-02-14T18:23:36.000Z,1009.177
2018-02-14T18:33:36.000Z,1009.192
2018-02-14T18:43:36.000Z,1009.244
2018-02-14T18:53:39.000Z,1009.103
2018-02-14T19:03:36.000Z,1008.776
2018-02-14T19:13:36.000Z,1008.899
2018-02-14T19:23:36.000Z,1008.845
2018-02-14T19:33:36.000Z,1008.648
2018-02-14T19:43:36.000Z,1008.605
2018-02-14T19:53:36.000Z,1008.523
2018-02-14T20:03:36.000Z,1008.406
2018-02-14T20:13:36.000Z,1008.462
2018-02-14T20:23:36.000Z,1008.456
2018-02-14T20:33:36.000Z,1008.397
2018-02-14T20:43:37.000Z,1008.366
2018-02-14T20:53:37.000Z,1008.19
2018-02-14T21:03:36.000Z,1008.203
2018-02-14T21:13:36.000Z,1007.952
2018-02-14T21:23:36.000Z,1008.023
2018-02-14T21:33:36.000Z,1008.005
2018-02-14T21:43:37.000Z,1008.136
2018-02-14T21:53:36.000Z,1008.085
2018-02-14T22:03:36.000Z,1008.036
2018-02-14T22:23:36.000Z,1007.774
2018-02-14T22:33:36.000Z,1007.672
2018-02-14T22:43:36.000Z,1007.615
2018-02-14T22:53:38.000Z,1007.599
2018-02-14T23:03:36.000Z,1007.482
2018-02-14T23:13:37.000Z,1007.365
2018-02-14T23:23:37.000Z,1007.207
2018-02-14T23:33:37.000Z,1006.709
2018-02-14T23:43:38.000Z,1006.691
2018-02-14T23:53:37.000Z,1006.66
